Time;durP1;ratioP1;P1;durP2;ratioP2;P2;SDS_P1;SDS_P2;PMS_P1;PMS_P2;Temp;Humidity;BMP_temperature;BMP_pressure;BME280_temperature;BME280_humidity;BME280_pressure;Samples;Min_cycle;Max_cycle;Signal;HPM_P1;HPM_P2
2022/04/05 00:01:48;;;;;;;1.00;1.00;;;;;;;;;;5063621;28;20209;-67
2022/04/05 00:04:15;;;;;;;0.77;0.77;;;;;;;;;;5066663;28;20319;-66
2022/04/05 00:06:42;;;;;;;1.43;0.80;;;;;;;;;;5066458;28;20518;-66
2022/04/05 00:09:10;;;;;;;1.43;0.90;;;;;;;;;;5067744;28;20619;-66
2022/04/05 00:11:37;;;;;;;1.63;1.07;;;;;;;;;;5061269;28;20194;-66
2022/04/05 00:14:04;;;;;;;0.90;0.90;;;;;;;;;;5066118;28;20688;-67
2022/04/05 00:16:31;;;;;;;1.27;1.17;;;;;;;;;;5066416;28;20201;-67
2022/04/05 00:18:58;;;;;;;0.73;0.73;;;;;;;;;;5066464;28;20217;-67
2022/04/05 00:21:25;;;;;;;1.00;0.90;;;;;;;;;;5064367;28;20209;-66
2022/04/05 00:23:52;;;;;;;1.07;1.00;;;;;;;;;;5064948;28;20230;-65
2022/04/05 00:26:20;;;;;;;1.10;1.00;;;;;;;;;;5049812;28;20521;-65
2022/04/05 00:28:47;;;;;;;0.80;0.80;;;;;;;;;;5068242;28;20194;-67
2022/04/05 00:31:14;;;;;;;1.17;1.00;;;;;;;;;;5066627;28;20201;-67
2022/04/05 00:33:41;;;;;;;2.23;1.20;;;;;;;;;;5063091;28;20206;-68
2022/04/05 00:36:08;;;;;;;3.43;1.40;;;;;;;;;;5071857;28;20223;-67
2022/04/05 00:38:35;;;;;;;2.20;1.40;;;;;;;;;;5067301;28;20250;-67
2022/04/05 00:41:02;;;;;;;1.43;1.33;;;;;;;;;;5065807;28;20266;-67
2022/04/05 00:43:30;;;;;;;1.70;1.60;;;;;;;;;;5063348;28;20258;-67
2022/04/05 00:45:57;;;;;;;1.93;1.40;;;;;;;;;;5065912;28;20202;-67
2022/04/05 00:48:50;;;;;;;1.93;1.73;;;;;;;;;;5064026;28;20789;-67
2022/04/05 00:51:18;;;;;;;1.60;1.50;;;;;;;;;;5057070;28;20212;-66
2022/04/05 00:53:47;;;;;;;1.20;1.10;;;;;;;;;;5064705;28;20228;-67
2022/04/05 00:56:15;;;;;;;1.30;1.20;;;;;;;;;;5065947;28;20194;-66
2022/04/05 00:58:46;;;;;;;2.67;1.87;;;;;;;;;;5066328;28;20306;-65
2022/04/05 01:01:16;;;;;;;1.50;1.40;;;;;;;;;;5069453;28;20201;-66
2022/04/05 01:03:48;;;;;;;2.03;1.80;;;;;;;;;;5051926;28;20201;-66
2022/04/05 01:06:38;;;;;;;1.30;1.20;;;;;;;;;;5071992;28;20543;-66
2022/04/05 01:09:08;;;;;;;2.27;1.60;;;;;;;;;;5033342;28;20209;-65
2022/04/05 01:11:35;;;;;;;2.13;1.80;;;;;;;;;;5035341;28;20194;-66
2022/04/05 01:14:02;;;;;;;1.50;1.40;;;;;;;;;;5065776;28;20252;-66
2022/04/05 01:16:30;;;;;;;2.93;1.73;;;;;;;;;;5048468;28;20201;-66
2022/04/05 01:18:57;;;;;;;1.97;1.67;;;;;;;;;;5066613;28;20224;-66
2022/04/05 01:21:25;;;;;;;1.53;1.20;;;;;;;;;;5069245;28;20196;-67
2022/04/05 01:24:07;;;;;;;1.90;1.60;;;;;;;;;;5064040;28;20267;-67
2022/04/05 01:26:38;;;;;;;2.77;1.83;;;;;;;;;;5064779;28;20210;-66
2022/04/05 01:29:05;;;;;;;1.90;1.23;;;;;;;;;;5066174;28;20194;-66
2022/04/05 01:31:36;;;;;;;2.03;1.37;;;;;;;;;;5051604;28;20181;-66
2022/04/05 01:34:04;;;;;;;1.83;1.37;;;;;;;;;;5067937;28;20530;-66
2022/04/05 01:36:31;;;;;;;1.93;1.40;;;;;;;;;;5062477;28;20213;-66
2022/04/05 01:38:58;;;;;;;3.57;1.50;;;;;;;;;;5065442;28;20223;-66
2022/04/05 01:41:26;;;;;;;1.93;1.63;;;;;;;;;;5063044;28;20197;-66
2022/04/05 01:43:53;;;;;;;1.70;1.40;;;;;;;;;;5066091;28;20209;-67
2022/04/05 01:46:20;;;;;;;1.77;1.47;;;;;;;;;;5067626;28;20194;-66
2022/04/05 01:48:47;;;;;;;4.10;1.60;;;;;;;;;;5068018;28;20226;-66
2022/04/05 01:51:14;;;;;;;1.90;1.40;;;;;;;;;;5046734;28;20335;-66
2022/04/05 01:53:41;;;;;;;1.83;1.40;;;;;;;;;;5063345;28;20263;-66
2022/04/05 01:56:09;;;;;;;1.40;1.23;;;;;;;;;;5063785;28;20251;-66
2022/04/05 01:58:37;;;;;;;2.17;1.93;;;;;;;;;;5043491;28;20310;-66
2022/04/05 02:01:04;;;;;;;1.93;1.57;;;;;;;;;;5045490;28;20202;-66
2022/04/05 02:03:31;;;;;;;1.70;1.60;;;;;;;;;;5072374;28;20198;-65
2022/04/05 02:05:58;;;;;;;1.97;1.30;;;;;;;;;;5069161;28;20212;-67
2022/04/05 02:08:26;;;;;;;2.40;1.40;;;;;;;;;;5070026;28;20194;-66
2022/04/05 02:10:53;;;;;;;2.00;1.80;;;;;;;;;;5068869;28;20194;-66
2022/04/05 02:13:20;;;;;;;2.30;1.43;;;;;;;;;;5065754;28;20205;-67
2022/04/05 02:15:47;;;;;;;1.47;1.37;;;;;;;;;;5063822;28;20204;-65
2022/04/05 02:18:15;;;;;;;2.00;1.60;;;;;;;;;;5073968;28;20857;-67
2022/04/05 02:20:43;;;;;;;1.73;1.63;;;;;;;;;;5068800;28;20209;-66
2022/04/05 02:23:10;;;;;;;2.60;1.73;;;;;;;;;;5062826;28;20213;-66
2022/04/05 02:25:37;;;;;;;2.33;1.50;;;;;;;;;;5063632;28;20388;-66
2022/04/05 02:28:04;;;;;;;2.00;1.40;;;;;;;;;;5068793;28;20263;-66
2022/04/05 02:30:34;;;;;;;1.90;1.50;;;;;;;;;;5068906;28;20271;-66
2022/04/05 02:33:01;;;;;;;1.97;1.60;;;;;;;;;;5071664;28;20271;-66
2022/04/05 02:35:28;;;;;;;1.97;1.63;;;;;;;;;;5063515;28;20193;-65
2022/04/05 02:37:59;;;;;;;1.73;1.30;;;;;;;;;;5074665;28;20666;-65
2022/04/05 02:40:27;;;;;;;2.17;1.60;;;;;;;;;;5057568;28;20190;-66
2022/04/05 02:42:54;;;;;;;1.93;1.70;;;;;;;;;;5068079;28;20692;-65
2022/04/05 02:45:21;;;;;;;1.70;1.23;;;;;;;;;;5066645;28;20209;-66
2022/04/05 02:47:49;;;;;;;1.97;1.60;;;;;;;;;;5065708;28;20229;-66
2022/04/05 02:50:18;;;;;;;4.60;1.23;;;;;;;;;;5067669;28;21147;-66
2022/04/05 02:52:45;;;;;;;1.83;1.67;;;;;;;;;;5068459;28;20202;-66
2022/04/05 02:55:13;;;;;;;2.50;1.30;;;;;;;;;;5067818;28;20197;-66
2022/04/05 02:57:40;;;;;;;1.70;1.37;;;;;;;;;;5065622;28;20423;-66
2022/04/05 03:00:08;;;;;;;2.33;1.57;;;;;;;;;;5065335;28;20241;-66
2022/04/05 03:02:36;;;;;;;3.03;1.40;;;;;;;;;;5067939;28;20213;-66
2022/04/05 03:05:07;;;;;;;1.73;1.23;;;;;;;;;;5068458;28;20260;-66
2022/04/05 03:07:35;;;;;;;1.87;1.57;;;;;;;;;;5065060;28;20197;-65
2022/04/05 03:10:03;;;;;;;1.87;1.50;;;;;;;;;;5070672;28;20198;-65
2022/04/05 03:12:31;;;;;;;1.60;1.40;;;;;;;;;;5068782;28;20213;-65
2022/04/05 03:14:58;;;;;;;2.47;1.30;;;;;;;;;;5056143;28;20255;-66
2022/04/05 03:17:25;;;;;;;1.47;1.20;;;;;;;;;;5068073;28;20227;-67
2022/04/05 03:19:52;;;;;;;2.87;2.00;;;;;;;;;;5076349;28;20236;-66
2022/04/05 03:22:20;;;;;;;2.13;1.60;;;;;;;;;;5067333;28;20201;-66
2022/04/05 03:24:47;;;;;;;1.60;1.50;;;;;;;;;;5064719;28;20461;-65
2022/04/05 03:27:14;;;;;;;1.40;1.30;;;;;;;;;;5067075;28;20209;-66
2022/04/05 03:29:42;;;;;;;2.37;1.50;;;;;;;;;;5064585;28;20255;-67
2022/04/05 03:32:11;;;;;;;2.27;1.50;;;;;;;;;;5067199;28;20186;-67
2022/04/05 03:34:38;;;;;;;2.63;1.50;;;;;;;;;;5070894;28;20309;-66
2022/04/05 03:37:06;;;;;;;2.50;1.23;;;;;;;;;;5064762;28;20279;-66
2022/04/05 03:39:33;;;;;;;2.27;1.47;;;;;;;;;;5070145;28;20256;-66
2022/04/05 03:42:01;;;;;;;2.43;1.40;;;;;;;;;;5068244;28;20646;-65
2022/04/05 03:44:28;;;;;;;2.87;1.37;;;;;;;;;;5066527;28;20201;-65
2022/04/05 03:46:56;;;;;;;2.33;1.40;;;;;;;;;;5065187;28;20202;-65
2022/04/05 03:49:24;;;;;;;2.43;1.33;;;;;;;;;;5062635;28;20212;-65
2022/04/05 03:51:51;;;;;;;2.30;1.10;;;;;;;;;;5067358;28;20202;-67
2022/04/05 03:54:18;;;;;;;1.93;1.40;;;;;;;;;;5067775;28;20708;-66
2022/04/05 03:56:45;;;;;;;1.83;1.20;;;;;;;;;;5067317;28;20209;-64
2022/04/05 03:59:12;;;;;;;1.40;1.30;;;;;;;;;;5066964;28;20932;-65
2022/04/05 04:01:39;;;;;;;1.53;1.13;;;;;;;;;;5061873;28;20198;-65
2022/04/05 04:04:08;;;;;;;1.70;1.27;;;;;;;;;;5065559;28;20210;-66
2022/04/05 04:06:40;;;;;;;2.00;1.30;;;;;;;;;;5066752;28;20275;-65
2022/04/05 04:09:07;;;;;;;1.33;1.10;;;;;;;;;;5067671;28;20185;-65
2022/04/05 04:11:34;;;;;;;2.53;1.20;;;;;;;;;;5061446;28;20503;-65
2022/04/05 04:14:01;;;;;;;1.00;1.00;;;;;;;;;;5066650;28;20264;-65
2022/04/05 04:16:29;;;;;;;1.77;1.17;;;;;;;;;;5066020;28;20214;-65
2022/04/05 04:18:56;;;;;;;1.80;1.03;;;;;;;;;;5056961;28;20208;-66
2022/04/05 04:21:23;;;;;;;1.57;1.13;;;;;;;;;;5064561;28;20677;-65
2022/04/05 04:23:50;;;;;;;2.77;1.07;;;;;;;;;;5063660;28;20249;-66
2022/04/05 04:26:18;;;;;;;1.43;1.03;;;;;;;;;;5065437;28;20212;-65
2022/04/05 04:28:45;;;;;;;1.03;0.87;;;;;;;;;;5074372;28;20185;-65
2022/04/05 04:31:15;;;;;;;1.37;1.27;;;;;;;;;;5048699;28;20202;-65
2022/04/05 04:33:42;;;;;;;2.50;1.17;;;;;;;;;;5063919;28;20194;-67
2022/04/05 04:36:09;;;;;;;1.83;1.20;;;;;;;;;;5064455;28;20206;-66
2022/04/05 04:38:37;;;;;;;1.23;1.13;;;;;;;;;;5065504;28;20197;-66
2022/04/05 04:41:04;;;;;;;1.87;1.20;;;;;;;;;;5066253;28;20623;-67
2022/04/05 04:43:31;;;;;;;1.40;1.20;;;;;;;;;;5064230;28;21004;-66
2022/04/05 04:46:00;;;;;;;1.27;1.17;;;;;;;;;;5065872;28;20233;-66
2022/04/05 04:48:28;;;;;;;1.50;1.30;;;;;;;;;;5063541;28;20235;-66
2022/04/05 04:51:04;;;;;;;1.37;0.90;;;;;;;;;;5073988;28;20174;-66
2022/04/05 04:53:36;;;;;;;1.00;0.90;;;;;;;;;;5061787;28;20189;-66
2022/04/05 04:56:08;;;;;;;2.60;1.10;;;;;;;;;;5076847;28;20201;-66
2022/04/05 04:58:40;;;;;;;1.43;1.30;;;;;;;;;;5067066;28;20240;-66
2022/04/05 05:01:10;;;;;;;2.37;1.00;;;;;;;;;;5072995;28;20194;-67
2022/04/05 05:03:40;;;;;;;2.00;1.20;;;;;;;;;;5061011;28;20486;-66
2022/04/05 05:06:10;;;;;;;1.70;1.10;;;;;;;;;;5078122;28;20264;-69
2022/04/05 05:08:41;;;;;;;2.53;1.33;;;;;;;;;;5076037;28;20530;-70
2022/04/05 05:11:28;;;;;;;1.63;1.43;;;;;;;;;;5072638;28;20220;-65
2022/04/05 05:13:57;;;;;;;1.50;1.20;;;;;;;;;;5063650;28;20201;-66
2022/04/05 05:16:27;;;;;;;2.13;1.30;;;;;;;;;;5075344;28;20627;-66
2022/04/05 05:19:01;;;;;;;1.10;1.00;;;;;;;;;;5064626;28;20206;-66
2022/04/05 05:21:33;;;;;;;2.00;1.90;;;;;;;;;;5067750;28;20663;-66
2022/04/05 05:24:12;;;;;;;1.70;1.20;;;;;;;;;;5038847;28;20289;-66
2022/04/05 05:26:43;;;;;;;1.23;1.10;;;;;;;;;;5063143;28;20564;-70
2022/04/05 05:29:15;;;;;;;2.53;1.23;;;;;;;;;;5065810;28;20190;-69
2022/04/05 05:31:42;;;;;;;7.53;3.37;;;;;;;;;;5054777;28;21017;-69
2022/04/05 05:34:22;;;;;;;7.87;2.50;;;;;;;;;;5065278;28;20200;-69
2022/04/05 05:36:53;;;;;;;5.47;2.70;;;;;;;;;;5062735;28;20271;-65
2022/04/05 05:39:24;;;;;;;8.07;2.90;;;;;;;;;;5067569;28;20197;-66
2022/04/05 05:41:54;;;;;;;10.90;3.70;;;;;;;;;;5068301;28;20518;-65
2022/04/05 05:44:23;;;;;;;10.90;3.40;;;;;;;;;;5067976;28;20502;-66
2022/04/05 05:47:05;;;;;;;14.17;3.90;;;;;;;;;;5069973;28;20245;-68
2022/04/05 05:49:32;;;;;;;12.63;3.53;;;;;;;;;;5048367;28;20202;-69
2022/04/05 05:52:00;;;;;;;11.83;4.37;;;;;;;;;;5068694;28;20868;-66
2022/04/05 05:54:27;;;;;;;12.47;4.23;;;;;;;;;;5069827;28;20190;-66
2022/04/05 05:56:54;;;;;;;11.27;3.77;;;;;;;;;;5069295;28;20247;-66
2022/04/05 05:59:22;;;;;;;7.53;3.40;;;;;;;;;;5064556;28;21088;-65
2022/04/05 06:01:50;;;;;;;10.23;3.50;;;;;;;;;;5073445;28;20251;-65
2022/04/05 06:04:17;;;;;;;7.93;3.17;;;;;;;;;;5075625;28;20696;-65
2022/04/05 06:06:44;;;;;;;9.20;3.60;;;;;;;;;;5068623;28;20275;-69
2022/04/05 06:09:11;;;;;;;8.90;4.00;;;;;;;;;;5069295;28;20224;-69
2022/04/05 06:11:38;;;;;;;8.20;3.83;;;;;;;;;;5064151;28;20298;-68
2022/04/05 06:14:06;;;;;;;7.17;3.50;;;;;;;;;;5045245;28;20206;-70
2022/04/05 06:16:33;;;;;;;6.77;3.03;;;;;;;;;;5067066;28;20213;-69
2022/04/05 06:19:00;;;;;;;7.53;2.87;;;;;;;;;;5067886;28;20201;-69
2022/04/05 06:21:29;;;;;;;5.77;2.70;;;;;;;;;;5063489;28;20205;-70
2022/04/05 06:23:58;;;;;;;8.57;3.63;;;;;;;;;;5063238;28;20698;-69
2022/04/05 06:26:32;;;;;;;8.13;3.17;;;;;;;;;;5067920;28;20220;-65
2022/04/05 06:29:02;;;;;;;7.43;2.40;;;;;;;;;;5065837;28;20186;-66
2022/04/05 06:31:37;;;;;;;6.07;2.83;;;;;;;;;;5064079;28;20189;-66
2022/04/05 06:34:08;;;;;;;5.00;2.67;;;;;;;;;;5066979;28;20198;-65
2022/04/05 06:36:40;;;;;;;14.30;4.30;;;;;;;;;;5064067;28;20196;-66
2022/04/05 06:39:13;;;;;;;21.43;4.97;;;;;;;;;;5076160;28;20276;-66
2022/04/05 06:41:43;;;;;;;24.07;5.33;;;;;;;;;;5075263;28;20201;-63
2022/04/05 06:44:12;;;;;;;17.93;5.57;;;;;;;;;;5044535;28;20208;-64
2022/04/05 06:46:39;;;;;;;18.53;4.80;;;;;;;;;;5070958;28;20728;-64
2022/04/05 06:49:07;;;;;;;14.80;4.83;;;;;;;;;;5077702;28;20217;-64
2022/04/05 06:51:34;;;;;;;18.00;4.73;;;;;;;;;;5073794;28;20579;-63
2022/04/05 06:54:01;;;;;;;13.80;4.30;;;;;;;;;;5078128;28;20508;-64
2022/04/05 06:56:28;;;;;;;11.47;3.80;;;;;;;;;;5075873;28;20655;-66
2022/04/05 06:58:55;;;;;;;11.77;4.00;;;;;;;;;;5077311;28;20217;-67
2022/04/05 07:01:25;;;;;;;9.93;4.00;;;;;;;;;;5073816;28;20255;-63
2022/04/05 07:03:57;;;;;;;9.20;2.80;;;;;;;;;;5082190;28;20220;-63
2022/04/05 07:06:28;;;;;;;10.23;3.47;;;;;;;;;;5061153;28;20673;-63
2022/04/05 07:09:00;;;;;;;8.00;2.70;;;;;;;;;;5077549;28;20208;-64
2022/04/05 07:11:30;;;;;;;5.93;2.17;;;;;;;;;;5073711;28;20385;-64
2022/04/05 07:14:01;;;;;;;6.83;2.47;;;;;;;;;;5078561;28;20201;-64
2022/04/05 07:16:32;;;;;;;5.13;2.30;;;;;;;;;;5074537;28;20201;-64
2022/04/05 07:19:04;;;;;;;7.20;2.53;;;;;;;;;;5073099;28;20662;-63
2022/04/05 07:21:33;;;;;;;7.07;2.40;;;;;;;;;;5055420;28;20202;-63
2022/04/05 07:24:00;;;;;;;6.47;2.00;;;;;;;;;;5075335;28;20213;-64
2022/04/05 07:26:27;;;;;;;5.37;2.20;;;;;;;;;;5074999;28;20560;-63
2022/04/05 07:28:54;;;;;;;5.87;2.00;;;;;;;;;;5082051;28;20626;-65
2022/04/05 07:31:26;;;;;;;5.10;1.87;;;;;;;;;;5074918;28;20224;-67
2022/04/05 07:33:53;;;;;;;6.83;2.27;;;;;;;;;;5076587;28;20254;-67
2022/04/05 07:36:21;;;;;;;4.83;1.87;;;;;;;;;;5077979;28;20266;-68
2022/04/05 07:38:48;;;;;;;4.50;1.50;;;;;;;;;;5078396;28;20204;-68
2022/04/05 07:41:15;;;;;;;3.40;1.40;;;;;;;;;;5079028;28;20202;-66
2022/04/05 07:43:42;;;;;;;3.70;1.73;;;;;;;;;;5077140;28;20220;-67
2022/04/05 07:46:10;;;;;;;3.53;1.90;;;;;;;;;;5064396;28;20646;-70
2022/04/05 07:48:37;;;;;;;4.47;1.77;;;;;;;;;;5071862;28;20221;-66
2022/04/05 07:51:06;;;;;;;3.70;1.73;;;;;;;;;;5077277;28;20603;-65
2022/04/05 07:53:35;;;;;;;2.07;1.13;;;;;;;;;;5068550;28;20209;-65
2022/04/05 07:56:04;;;;;;;5.13;1.77;;;;;;;;;;5076236;28;20254;-68
2022/04/05 07:58:36;;;;;;;2.47;2.00;;;;;;;;;;5057151;28;20269;-67
2022/04/05 08:01:06;;;;;;;2.30;0.90;;;;;;;;;;5072007;28;20214;-67
2022/04/05 08:03:38;;;;;;;2.73;1.20;;;;;;;;;;5072037;28;20205;-65
2022/04/05 08:06:08;;;;;;;3.70;1.47;;;;;;;;;;5078211;28;20270;-65
2022/04/05 08:08:40;;;;;;;2.50;1.30;;;;;;;;;;5060221;28;20193;-66
2022/04/05 08:11:26;;;;;;;2.83;1.50;;;;;;;;;;5069354;28;20267;-67
2022/04/05 08:13:56;;;;;;;1.60;1.00;;;;;;;;;;5074487;28;20680;-67
2022/04/05 08:16:28;;;;;;;2.10;1.10;;;;;;;;;;5070612;28;20196;-66
2022/04/05 08:18:59;;;;;;;2.40;0.83;;;;;;;;;;5055414;28;20675;-66
2022/04/05 08:21:33;;;;;;;3.57;1.13;;;;;;;;;;5074204;28;20193;-68
2022/04/05 08:24:05;;;;;;;1.77;0.90;;;;;;;;;;5044420;28;20216;-68
2022/04/05 08:26:35;;;;;;;2.13;1.20;;;;;;;;;;5054842;28;20306;-67
2022/04/05 08:29:04;;;;;;;1.93;1.00;;;;;;;;;;5076261;28;20201;-67
2022/04/05 08:31:35;;;;;;;4.23;1.07;;;;;;;;;;5035267;28;20219;-66
2022/04/05 08:34:13;;;;;;;5.40;1.20;;;;;;;;;;5077542;28;20244;-67
2022/04/05 08:36:42;;;;;;;2.43;1.07;;;;;;;;;;5069126;28;20236;-68
2022/04/05 08:39:17;;;;;;;2.10;1.10;;;;;;;;;;5073129;28;20212;-65
2022/04/05 08:41:47;;;;;;;2.13;1.10;;;;;;;;;;5080400;28;20185;-66
2022/04/05 08:44:21;;;;;;;2.70;1.10;;;;;;;;;;5063328;28;20224;-66
2022/04/05 08:46:52;;;;;;;2.77;1.30;;;;;;;;;;5073819;28;20217;-66
2022/04/05 08:49:22;;;;;;;3.07;1.33;;;;;;;;;;5059693;28;20213;-68
2022/04/05 08:51:51;;;;;;;2.10;1.10;;;;;;;;;;5075781;28;20221;-67
2022/04/05 08:54:21;;;;;;;2.83;1.10;;;;;;;;;;5080372;28;20210;-63
2022/04/05 08:56:52;;;;;;;3.63;1.30;;;;;;;;;;5075427;28;20200;-67
2022/04/05 08:59:24;;;;;;;2.83;1.10;;;;;;;;;;5073498;28;20241;-68
2022/04/05 09:01:53;;;;;;;3.43;1.10;;;;;;;;;;5061095;28;20197;-67
2022/04/05 09:04:24;;;;;;;2.10;1.10;;;;;;;;;;5078787;28;20279;-68
2022/04/05 09:06:55;;;;;;;2.37;0.97;;;;;;;;;;5077747;28;20235;-64
2022/04/05 09:09:30;;;;;;;1.97;1.17;;;;;;;;;;5078167;28;20311;-65
2022/04/05 09:12:17;;;;;;;3.17;1.20;;;;;;;;;;5083102;28;20210;-66
2022/04/05 09:14:54;;;;;;;6.60;1.07;;;;;;;;;;5080036;28;20203;-67
2022/04/05 09:17:21;;;;;;;4.17;1.20;;;;;;;;;;5081691;28;20208;-62
2022/04/05 09:19:53;;;;;;;1.30;1.00;;;;;;;;;;5065844;28;20219;-65
2022/04/05 09:22:34;;;;;;;4.87;1.40;;;;;;;;;;5085373;28;20212;-67
2022/04/05 09:25:08;;;;;;;2.83;1.20;;;;;;;;;;5080053;28;20209;-65
2022/04/05 09:27:54;;;;;;;1.70;0.83;;;;;;;;;;5079199;28;20521;-64
2022/04/05 09:30:31;;;;;;;2.07;1.20;;;;;;;;;;5051655;28;20204;-64
2022/04/05 09:33:01;;;;;;;1.73;1.10;;;;;;;;;;5076063;28;20212;-65
2022/04/05 09:35:29;;;;;;;1.57;1.00;;;;;;;;;;5075748;28;20779;-65
2022/04/05 09:38:17;;;;;;;1.77;1.07;;;;;;;;;;5083678;28;20728;-64
2022/04/05 09:40:44;;;;;;;2.07;1.10;;;;;;;;;;5082762;28;20196;-66
2022/04/05 09:43:31;;;;;;;2.67;0.80;;;;;;;;;;5080279;28;20743;-66
2022/04/05 09:46:01;;;;;;;1.97;1.10;;;;;;;;;;5078191;28;20634;-68
2022/04/05 09:48:30;;;;;;;4.97;1.20;;;;;;;;;;5079461;28;20228;-68
2022/04/05 09:51:16;;;;;;;2.70;1.00;;;;;;;;;;5063004;28;20193;-67
2022/04/05 09:53:54;;;;;;;2.30;1.10;;;;;;;;;;5078948;28;20670;-67
2022/04/05 09:56:32;;;;;;;3.87;1.27;;;;;;;;;;5080072;28;20193;-67
2022/04/05 09:59:04;;;;;;;1.33;1.00;;;;;;;;;;5078884;28;20301;-67
2022/04/05 10:01:33;;;;;;;1.93;0.83;;;;;;;;;;5083164;28;20276;-68
2022/04/05 10:04:11;;;;;;;2.80;0.80;;;;;;;;;;5081752;28;20258;-69
2022/04/05 10:06:41;;;;;;;3.17;1.07;;;;;;;;;;5083957;28;20220;-67
2022/04/05 10:09:08;;;;;;;2.07;1.30;;;;;;;;;;5096850;28;20194;-65
2022/04/05 10:11:39;;;;;;;2.93;0.97;;;;;;;;;;5074376;28;20837;-67
2022/04/05 10:14:13;;;;;;;1.27;0.90;;;;;;;;;;5077157;28;20280;-68
2022/04/05 10:16:51;;;;;;;1.30;1.03;;;;;;;;;;5077260;28;20208;-64
2022/04/05 10:19:24;;;;;;;3.17;0.83;;;;;;;;;;5076068;28;20254;-64
2022/04/05 10:21:56;;;;;;;1.50;0.80;;;;;;;;;;5079746;28;20200;-64
2022/04/05 10:24:30;;;;;;;1.53;0.70;;;;;;;;;;5077154;28;20307;-63
2022/04/05 10:26:59;;;;;;;1.47;0.60;;;;;;;;;;5079951;28;20224;-65
2022/04/05 10:29:26;;;;;;;1.70;0.80;;;;;;;;;;5060507;28;20811;-64
2022/04/05 10:32:30;;;;;;;1.47;0.80;;;;;;;;;;5077419;28;20699;-65
2022/04/05 10:35:08;;;;;;;1.57;0.80;;;;;;;;;;4985761;28;20720;-65
2022/04/05 10:37:41;;;;;;;2.63;1.20;;;;;;;;;;4979518;28;20305;-66
2022/04/05 10:40:15;;;;;;;2.70;1.00;;;;;;;;;;4985258;28;20204;-64
2022/04/05 10:42:48;;;;;;;1.33;0.70;;;;;;;;;;4984898;28;20279;-64
2022/04/05 10:45:21;;;;;;;1.50;0.90;;;;;;;;;;4984027;28;20690;-64
2022/04/05 10:47:55;;;;;;;2.70;1.07;;;;;;;;;;4983101;28;20287;-63
2022/04/05 10:50:44;;;;;;;1.37;1.13;;;;;;;;;;5075359;28;20665;-66
2022/04/05 10:53:12;;;;;;;1.47;0.90;;;;;;;;;;5077394;28;20207;-66
2022/04/05 10:55:58;;;;;;;4.50;1.00;;;;;;;;;;5077856;28;20451;-64
2022/04/05 10:58:25;;;;;;;1.30;0.80;;;;;;;;;;5082411;28;20280;-66
2022/04/05 11:01:12;;;;;;;1.43;1.00;;;;;;;;;;5079344;28;20317;-63
2022/04/05 11:03:39;;;;;;;1.40;0.80;;;;;;;;;;5076723;28;20614;-64
2022/04/05 11:06:08;;;;;;;1.00;0.90;;;;;;;;;;5080407;28;20189;-67
2022/04/05 11:08:42;;;;;;;1.57;0.90;;;;;;;;;;5079497;28;20486;-66
2022/04/05 11:11:11;;;;;;;1.37;0.77;;;;;;;;;;5076850;28;20213;-64
2022/04/05 11:13:46;;;;;;;1.50;1.00;;;;;;;;;;5075885;28;20967;-64
2022/04/05 11:16:20;;;;;;;4.17;1.13;;;;;;;;;;5078450;28;20197;-64
2022/04/05 11:18:58;;;;;;;1.97;1.10;;;;;;;;;;5068905;28;20213;-63
2022/04/05 11:21:33;;;;;;;2.10;1.53;;;;;;;;;;5065062;28;20194;-66
2022/04/05 11:24:06;;;;;;;2.60;1.20;;;;;;;;;;5077022;28;20312;-67
2022/04/05 11:26:39;;;;;;;2.50;0.90;;;;;;;;;;5063869;28;20208;-65
2022/04/05 11:29:22;;;;;;;1.87;1.10;;;;;;;;;;5082211;28;20798;-64
2022/04/05 11:32:10;;;;;;;3.17;1.03;;;;;;;;;;5081338;28;20189;-63
2022/04/05 11:34:46;;;;;;;2.03;1.10;;;;;;;;;;5079807;28;20253;-63
2022/04/05 11:37:13;;;;;;;2.00;1.03;;;;;;;;;;5077005;28;20216;-63
2022/04/05 11:39:42;;;;;;;1.83;1.00;;;;;;;;;;5078725;28;20189;-65
2022/04/05 11:42:10;;;;;;;0.97;0.83;;;;;;;;;;5079362;28;20699;-66
2022/04/05 11:44:37;;;;;;;1.67;1.00;;;;;;;;;;5061064;28;20302;-67
2022/04/05 11:47:06;;;;;;;1.27;0.80;;;;;;;;;;5080918;28;20225;-62
2022/04/05 11:49:43;;;;;;;1.57;1.00;;;;;;;;;;5075999;28;20591;-63
2022/04/05 11:52:15;;;;;;;1.63;0.90;;;;;;;;;;5063551;28;20704;-66
2022/04/05 11:57:42;;;;;;;1.00;0.60;;;;;;;;;;5073409;28;20205;-66
2022/04/05 12:00:10;;;;;;;1.30;0.90;;;;;;;;;;5068720;28;20241;-67
2022/04/05 12:02:37;;;;;;;1.43;1.03;;;;;;;;;;5075177;28;20189;-66
2022/04/05 12:05:05;;;;;;;4.43;1.40;;;;;;;;;;5076571;28;20219;-63
2022/04/05 12:07:33;;;;;;;3.03;1.10;;;;;;;;;;5073374;28;20282;-65
2022/04/05 12:10:00;;;;;;;1.90;1.10;;;;;;;;;;5073621;28;20228;-65
2022/04/05 12:12:28;;;;;;;1.93;0.90;;;;;;;;;;5077596;28;20615;-64
2022/04/05 12:14:55;;;;;;;2.97;1.07;;;;;;;;;;5073820;28;20251;-63
2022/04/05 12:17:24;;;;;;;1.80;1.00;;;;;;;;;;5073106;28;20198;-64
2022/04/05 12:19:53;;;;;;;2.93;1.00;;;;;;;;;;5074026;28;20209;-63
2022/04/05 12:22:21;;;;;;;1.27;0.80;;;;;;;;;;5076047;28;20217;-67
2022/04/05 12:24:55;;;;;;;1.97;1.10;;;;;;;;;;5053813;28;20200;-66
2022/04/05 12:27:28;;;;;;;1.50;0.80;;;;;;;;;;5075234;28;20225;-66
2022/04/05 12:30:00;;;;;;;0.87;0.80;;;;;;;;;;5057803;28;20193;-67
2022/04/05 12:32:41;;;;;;;2.33;1.20;;;;;;;;;;5061408;28;20673;-67
2022/04/05 12:35:15;;;;;;;2.33;0.77;;;;;;;;;;5057137;28;20291;-67
2022/04/05 12:37:44;;;;;;;2.27;0.93;;;;;;;;;;5071784;28;20228;-66
2022/04/05 12:40:25;;;;;;;3.37;1.07;;;;;;;;;;5060412;28;20207;-64
2022/04/05 12:42:57;;;;;;;1.73;1.00;;;;;;;;;;5060260;28;20205;-64
2022/04/05 12:45:31;;;;;;;1.30;0.90;;;;;;;;;;5071388;28;20204;-67
2022/04/05 12:48:11;;;;;;;2.50;0.83;;;;;;;;;;5075384;28;20236;-68
2022/04/05 12:50:54;;;;;;;2.43;0.90;;;;;;;;;;5076210;28;20185;-64
2022/04/05 12:53:37;;;;;;;1.83;0.80;;;;;;;;;;5075340;28;20201;-65
2022/04/05 12:56:14;;;;;;;1.60;0.87;;;;;;;;;;5076751;28;20186;-68
2022/04/05 12:58:52;;;;;;;5.13;0.90;;;;;;;;;;5047803;28;20233;-67
2022/04/05 13:01:27;;;;;;;3.43;1.00;;;;;;;;;;5073675;28;20228;-67
2022/04/05 13:04:04;;;;;;;1.53;0.70;;;;;;;;;;5073995;28;20248;-67
2022/04/05 13:06:40;;;;;;;1.30;0.80;;;;;;;;;;5079711;28;20194;-68
2022/04/05 13:09:15;;;;;;;1.03;0.53;;;;;;;;;;5077659;28;20673;-68
2022/04/05 13:11:47;;;;;;;1.30;0.80;;;;;;;;;;5058751;28;20215;-68
2022/04/05 13:14:20;;;;;;;3.70;0.80;;;;;;;;;;5076181;28;20274;-67
2022/04/05 13:17:01;;;;;;;1.53;0.73;;;;;;;;;;5077236;28;20204;-67
2022/04/05 13:19:30;;;;;;;2.60;0.60;;;;;;;;;;5076684;28;20764;-68
2022/04/05 13:22:15;;;;;;;1.37;0.77;;;;;;;;;;5062428;28;20224;-68
2022/04/05 13:24:44;;;;;;;1.77;1.00;;;;;;;;;;5073758;28;20216;-67
2022/04/05 13:27:11;;;;;;;2.07;0.87;;;;;;;;;;5077409;28;20220;-68
2022/04/05 13:29:42;;;;;;;1.13;0.97;;;;;;;;;;5068575;28;20321;-69
2022/04/05 13:32:19;;;;;;;1.33;0.70;;;;;;;;;;5079728;28;20240;-68
2022/04/05 13:34:46;;;;;;;1.07;0.77;;;;;;;;;;5075479;28;20201;-68
2022/04/05 13:37:15;;;;;;;1.07;0.70;;;;;;;;;;5077376;28;20204;-68
2022/04/05 13:39:42;;;;;;;1.60;1.00;;;;;;;;;;5070741;28;20209;-68
2022/04/05 13:42:13;;;;;;;0.97;0.87;;;;;;;;;;5076865;28;20527;-71
2022/04/05 13:44:41;;;;;;;1.07;0.80;;;;;;;;;;5077913;28;20247;-71
2022/04/05 13:47:08;;;;;;;1.00;0.83;;;;;;;;;;5079380;28;20239;-67
2022/04/05 13:49:35;;;;;;;0.97;0.80;;;;;;;;;;5072459;28;20213;-66
2022/04/05 13:52:03;;;;;;;2.17;0.93;;;;;;;;;;5078709;28;20995;-65
2022/04/05 13:54:50;;;;;;;1.10;0.70;;;;;;;;;;5072505;28;20209;-66
2022/04/05 13:57:20;;;;;;;0.93;0.70;;;;;;;;;;5056090;28;20205;-68
2022/04/05 13:59:48;;;;;;;1.33;0.87;;;;;;;;;;5076824;28;20237;-67
2022/04/05 14:02:17;;;;;;;1.43;1.00;;;;;;;;;;5072006;28;20197;-67
2022/04/05 14:04:44;;;;;;;3.23;1.23;;;;;;;;;;5079530;28;20246;-66
2022/04/05 14:07:14;;;;;;;6.50;0.87;;;;;;;;;;5078372;28;20182;-65
2022/04/05 14:09:41;;;;;;;8.00;1.23;;;;;;;;;;5074186;28;20200;-66
2022/04/05 14:12:08;;;;;;;3.33;0.80;;;;;;;;;;5056039;28;20220;-66
2022/04/05 14:14:35;;;;;;;4.27;1.13;;;;;;;;;;5077525;28;20260;-66
2022/04/05 14:17:04;;;;;;;1.03;0.90;;;;;;;;;;5083158;28;20197;-66
2022/04/05 14:19:35;;;;;;;2.73;1.17;;;;;;;;;;5073983;28;20193;-67
2022/04/05 14:22:06;;;;;;;3.00;0.97;;;;;;;;;;5074202;28;20201;-63
2022/04/05 14:24:40;;;;;;;4.90;0.83;;;;;;;;;;5076588;28;20238;-64
2022/04/05 14:27:10;;;;;;;2.13;0.67;;;;;;;;;;5084691;28;20713;-65
2022/04/05 14:29:38;;;;;;;0.90;0.80;;;;;;;;;;5057526;28;20209;-64
2022/04/05 14:32:10;;;;;;;1.07;0.63;;;;;;;;;;5078588;28;20227;-65
2022/04/05 14:34:43;;;;;;;2.07;1.20;;;;;;;;;;5063006;28;20200;-68
2022/04/05 14:37:12;;;;;;;1.40;0.80;;;;;;;;;;5073104;28;20216;-64
2022/04/05 14:39:53;;;;;;;1.97;0.70;;;;;;;;;;5062913;28;20234;-65
2022/04/05 14:42:25;;;;;;;1.83;0.87;;;;;;;;;;5076667;28;20201;-65
2022/04/05 14:45:14;;;;;;;2.80;0.90;;;;;;;;;;5079110;28;20387;-65
2022/04/05 14:47:50;;;;;;;1.63;0.70;;;;;;;;;;5078523;28;20228;-65
2022/04/05 14:50:17;;;;;;;0.80;0.80;;;;;;;;;;5080931;28;20250;-66
2022/04/05 14:53:05;;;;;;;1.30;0.60;;;;;;;;;;5063136;28;20211;-66
2022/04/05 14:55:32;;;;;;;1.70;0.80;;;;;;;;;;5075147;28;20209;-64
2022/04/05 14:57:59;;;;;;;1.57;0.80;;;;;;;;;;5080584;28;20194;-66
2022/04/05 15:00:26;;;;;;;2.03;0.60;;;;;;;;;;5075652;28;20229;-63
2022/04/05 15:02:53;;;;;;;1.70;0.70;;;;;;;;;;5077723;28;20205;-65
2022/04/05 15:05:21;;;;;;;1.17;0.60;;;;;;;;;;5057958;28;20208;-66
2022/04/05 15:07:48;;;;;;;1.07;0.60;;;;;;;;;;5075460;28;20217;-66